createdAt,value
2016-09-23T00:00:21.271Z,8.89
2016-09-23T00:01:21.234Z,8.94
2016-09-23T00:02:21.499Z,8.94
2016-09-23T00:03:21.463Z,8.99
2016-09-23T00:04:21.425Z,8.98
2016-09-23T00:05:21.387Z,8.99
2016-09-23T00:06:21.045Z,9.04
2016-09-23T00:07:21.313Z,9.08
2016-09-23T00:08:21.275Z,9.01
2016-09-23T00:09:20.939Z,9.04
2016-09-23T00:10:20.895Z,9.08
2016-09-23T00:11:21.163Z,9.01
2016-09-23T00:12:20.828Z,8.98
2016-09-23T00:13:21.089Z,8.91
2016-09-23T00:14:21.056Z,8.96
2016-09-23T00:15:21.014Z,8.91
2016-09-23T00:16:20.979Z,8.81
2016-09-23T00:17:20.945Z,8.92
2016-09-23T00:18:20.907Z,8.89
2016-09-23T00:19:20.872Z,8.84
2016-09-23T00:20:20.830Z,8.83
2016-09-23T00:21:20.794Z,8.84
2016-09-23T00:22:20.451Z,8.73
2016-09-23T00:23:20.724Z,8.74
2016-09-23T00:24:20.377Z,8.87
2016-09-23T00:25:20.647Z,8.74
2016-09-23T00:26:20.608Z,8.74
2016-09-23T00:27:20.576Z,8.71
2016-09-23T00:28:19.931Z,8.73
2016-09-23T00:29:20.500Z,8.7
2016-09-23T00:30:20.468Z,8.8
2016-09-23T00:31:20.421Z,8.74
2016-09-23T00:32:20.085Z,8.63
2016-09-23T00:33:20.355Z,8.71
2016-09-23T00:34:20.011Z,8.74
2016-09-23T00:35:20.276Z,8.73
2016-09-23T00:36:20.241Z,8.73
2016-09-23T00:37:20.204Z,8.71
2016-09-23T00:38:20.164Z,8.7
2016-09-23T00:39:20.127Z,8.71
2016-09-23T00:40:20.093Z,8.65
2016-09-23T00:41:20.056Z,8.65
2016-09-23T00:42:19.410Z,8.68
2016-09-23T00:43:19.984Z,8.56
2016-09-23T00:44:19.640Z,8.65
2016-09-23T00:45:19.908Z,8.65
2016-09-23T00:46:19.869Z,8.66
2016-09-23T00:47:19.827Z,8.66
2016-09-23T00:48:19.798Z,8.7
2016-09-23T00:49:19.456Z,8.55
2016-09-23T00:50:19.717Z,8.68
2016-09-23T00:51:19.685Z,8.65
2016-09-23T00:52:19.647Z,8.73
2016-09-23T00:53:19.606Z,8.65
2016-09-23T00:54:19.568Z,8.63
2016-09-23T00:55:19.233Z,8.55
2016-09-23T00:56:18.891Z,8.66
2016-09-23T00:57:19.158Z,8.61
2016-09-23T00:58:19.439Z,8.62
2016-09-23T00:59:19.382Z,8.63
2016-09-23T01:00:19.364Z,8.56
2016-09-23T01:01:19.314Z,8.55
2016-09-23T01:02:18.672Z,8.56
2016-09-23T01:03:18.937Z,8.59
2016-09-23T01:04:19.198Z,8.58
2016-09-23T01:05:18.858Z,8.56
2016-09-23T01:06:18.826Z,8.59
2016-09-23T01:07:18.787Z,8.58
2016-09-23T01:08:19.051Z,8.5
2016-09-23T01:09:19.029Z,8.55
2016-09-23T01:10:18.682Z,8.56
2016-09-23T01:11:18.335Z,8.56
2016-09-23T01:12:18.904Z,8.5
2016-09-23T01:13:18.561Z,8.52
2016-09-23T01:14:18.524Z,8.53
2016-09-23T01:15:18.792Z,8.55
2016-09-23T01:16:18.452Z,8.52
2016-09-23T01:17:18.712Z,8.52
2016-09-23T01:18:18.379Z,8.5
2016-09-23T01:19:18.640Z,8.48
2016-09-23T01:20:18.313Z,8.53
2016-09-23T01:21:18.567Z,8.5
2016-09-23T01:22:18.227Z,8.55
2016-09-23T01:23:18.201Z,8.55
2016-09-23T01:24:18.155Z,8.53
2016-09-23T01:25:18.421Z,8.53
2016-09-23T01:26:18.382Z,8.59
2016-09-23T01:27:18.040Z,8.59
2016-09-23T01:28:18.004Z,8.56
2016-09-23T01:29:18.277Z,8.56
2016-09-23T01:30:18.231Z,8.61
2016-09-23T01:31:18.199Z,8.59
2016-09-23T01:32:18.161Z,8.55
2016-09-23T01:33:18.125Z,8.56
2016-09-23T01:34:17.782Z,8.59
2016-09-23T01:35:18.050Z,8.5
2016-09-23T01:36:18.016Z,8.56
2016-09-23T01:37:17.971Z,8.55
2016-09-23T01:38:17.935Z,8.52
2016-09-23T01:39:17.594Z,8.5
2016-09-23T01:40:17.862Z,8.5
2016-09-23T01:41:17.523Z,8.53
2016-09-23T01:42:17.785Z,8.55
2016-09-23T01:43:17.750Z,8.53
2016-09-23T01:44:17.708Z,8.56
2016-09-23T01:45:17.682Z,8.52
2016-09-23T01:46:17.330Z,8.55
2016-09-23T01:47:17.600Z,8.53
2016-09-23T01:48:17.261Z,8.55
2016-09-23T01:49:17.522Z,8.61
2016-09-23T01:50:17.183Z,8.61
2016-09-23T01:51:17.449Z,8.56
2016-09-23T01:52:17.418Z,8.56
2016-09-23T01:53:17.073Z,8.61
2016-09-23T01:54:17.037Z,8.62
2016-09-23T01:55:17.001Z,8.55
2016-09-23T01:56:17.264Z,8.62
2016-09-23T01:57:17.228Z,8.52
2016-09-23T01:58:17.190Z,8.62
2016-09-23T01:59:17.152Z,8.55
2016-09-23T02:00:17.112Z,8.63
2016-09-23T02:01:17.078Z,8.59
2016-09-23T02:02:16.741Z,8.62
2016-09-23T02:03:17.006Z,8.62
2016-09-23T02:04:16.666Z,8.58
2016-09-23T02:05:16.928Z,8.61
2016-09-23T02:06:16.594Z,8.59
2016-09-23T02:07:16.554Z,8.61
2016-09-23T02:08:16.518Z,8.61
2016-09-23T02:09:16.477Z,8.55
2016-09-23T02:10:16.440Z,8.58
2016-09-23T02:11:16.712Z,8.59
2016-09-23T02:12:16.371Z,8.56
2016-09-23T02:13:16.331Z,8.52
2016-09-23T02:14:16.591Z,8.59
2016-09-23T02:15:16.558Z,8.48
2016-09-23T02:16:16.216Z,8.56
2016-09-23T02:17:16.484Z,8.53
2016-09-23T02:18:16.444Z,8.53
2016-09-23T02:19:16.409Z,8.43
2016-09-23T02:20:16.368Z,8.41
2016-09-23T02:21:16.049Z,8.45
2016-09-23T02:22:16.294Z,8.43
2016-09-23T02:23:15.954Z,8.41
2016-09-23T02:24:15.918Z,8.4
2016-09-23T02:25:16.186Z,8.5
2016-09-23T02:26:15.844Z,8.52
2016-09-23T02:27:15.808Z,8.44
2016-09-23T02:28:15.790Z,8.45
2016-09-23T02:29:16.029Z,8.43
2016-09-23T02:30:16.000Z,8.43
2016-09-23T02:31:15.961Z,8.41
2016-09-23T02:32:15.617Z,8.3
2016-09-23T02:33:15.885Z,8.33
2016-09-23T02:34:15.849Z,8.33
2016-09-23T02:35:15.508Z,8.3
2016-09-23T02:36:15.774Z,8.38
2016-09-23T02:37:15.753Z,8.33
2016-09-23T02:38:15.712Z,8.3
2016-09-23T02:39:15.058Z,8.22
2016-09-23T02:40:15.625Z,8.29
2016-09-23T02:41:15.584Z,8.29
2016-09-23T02:42:15.558Z,8.23
2016-09-23T02:43:15.212Z,8.3
2016-09-23T02:44:15.477Z,8.19
2016-09-23T02:45:15.433Z,8.22
2016-09-23T02:46:15.403Z,8.19
2016-09-23T02:47:15.371Z,8.16
2016-09-23T02:48:15.022Z,8.18
2016-09-23T02:49:14.985Z,8.23
2016-09-23T02:50:14.949Z,8.19
2016-09-23T02:51:14.920Z,8.19
2016-09-23T02:52:15.175Z,8.25
2016-09-23T02:53:14.838Z,8.18
2016-09-23T02:54:15.106Z,8.19
2016-09-23T02:55:15.064Z,8.2
2016-09-23T02:56:15.033Z,8.26
2016-09-23T02:57:14.685Z,8.3
2016-09-23T02:58:14.952Z,8.2
2016-09-23T02:59:14.610Z,8.26
2016-09-23T03:00:14.576Z,8.29
2016-09-23T03:01:14.859Z,8.36
2016-09-23T03:02:14.498Z,8.38
2016-09-23T03:03:14.470Z,8.3
2016-09-23T03:04:14.722Z,8.34
2016-09-23T03:05:14.385Z,8.33
2016-09-23T03:06:14.653Z,8.34
2016-09-23T03:07:14.312Z,8.36
2016-09-23T03:08:14.575Z,8.3
2016-09-23T03:09:14.535Z,8.53
2016-09-23T03:10:14.203Z,8.45
2016-09-23T03:11:15.021Z,8.48
2016-09-23T03:12:14.428Z,8.55
2016-09-23T03:13:14.392Z,8.52
2016-09-23T03:14:14.063Z,8.53
2016-09-23T03:15:14.014Z,8.52
2016-09-23T03:16:14.274Z,8.55
2016-09-23T03:17:14.264Z,8.55
2016-09-23T03:18:14.202Z,8.55
2016-09-23T03:19:13.865Z,8.53
2016-09-23T03:20:14.128Z,8.52
2016-09-23T03:21:14.093Z,8.61
2016-09-23T03:22:14.061Z,8.56
2016-09-23T03:23:13.712Z,8.65
2016-09-23T03:24:13.979Z,8.58
2016-09-23T03:25:13.939Z,8.58
2016-09-23T03:26:13.905Z,8.66
2016-09-23T03:27:13.868Z,8.63
2016-09-23T03:28:13.831Z,8.62
2016-09-23T03:29:13.794Z,8.63
2016-09-23T03:30:13.452Z,8.66
2016-09-23T03:31:13.717Z,8.58
2016-09-23T03:32:13.679Z,8.66
2016-09-23T03:33:13.349Z,8.7
2016-09-23T03:34:13.608Z,8.55
2016-09-23T03:35:13.575Z,8.63
2016-09-23T03:36:13.529Z,8.7
2016-09-23T03:37:12.891Z,8.62
2016-09-23T03:38:13.466Z,8.66
2016-09-23T03:39:13.419Z,8.7
2016-09-23T03:40:13.381Z,8.71
2016-09-23T03:41:13.345Z,8.71
2016-09-23T03:42:13.310Z,8.73
2016-09-23T03:43:13.274Z,8.66
2016-09-23T03:44:12.928Z,8.7
2016-09-23T03:45:12.890Z,8.79
2016-09-23T03:46:12.857Z,8.71
2016-09-23T03:47:12.821Z,8.68
2016-09-23T03:48:13.086Z,8.76
2016-09-23T03:49:13.045Z,8.76
2016-09-23T03:50:13.008Z,8.74
2016-09-23T03:51:12.676Z,8.73
2016-09-23T03:52:12.634Z,8.7
2016-09-23T03:53:12.901Z,8.76
2016-09-23T03:54:12.864Z,8.73
2016-09-23T03:55:12.524Z,8.77
2016-09-23T03:56:12.789Z,8.79
2016-09-23T03:57:12.761Z,8.79
2016-09-23T03:58:12.412Z,8.79
2016-09-23T03:59:12.375Z,8.92
2016-09-23T04:00:12.642Z,8.92
2016-09-23T04:01:12.605Z,8.84
2016-09-23T04:02:12.265Z,8.91
2016-09-23T04:03:12.529Z,8.86
2016-09-23T04:04:12.191Z,8.96
2016-09-23T04:05:12.149Z,8.92
2016-09-23T04:06:12.423Z,8.95
2016-09-23T04:07:12.379Z,8.91
2016-09-23T04:08:12.345Z,8.89
2016-09-23T04:09:12.006Z,8.87
2016-09-23T04:10:12.270Z,8.89
2016-09-23T04:11:12.233Z,8.92
2016-09-23T04:12:12.194Z,8.95
2016-09-23T04:13:12.164Z,8.89
2016-09-23T04:14:11.819Z,8.92
2016-09-23T04:15:12.080Z,8.95
2016-09-23T04:16:12.047Z,8.96
2016-09-23T04:17:12.017Z,8.95
2016-09-23T04:18:11.972Z,8.98
2016-09-23T04:19:11.935Z,9.01
2016-09-23T04:20:11.909Z,9.1
2016-09-23T04:21:11.860Z,9.02
2016-09-23T04:22:11.523Z,9.04
2016-09-23T04:23:11.787Z,9.04
2016-09-23T04:24:11.442Z,9.13
2016-09-23T04:25:11.712Z,8.99
2016-09-23T04:26:11.674Z,9.11
2016-09-23T04:27:11.030Z,9.15
2016-09-23T04:28:11.603Z,9.2
2016-09-23T04:29:11.563Z,9.18
2016-09-23T04:30:11.527Z,9.24
2016-09-23T04:31:11.194Z,9.23
2016-09-23T04:32:11.147Z,9.26
2016-09-23T04:33:11.424Z,9.23
2016-09-23T04:34:11.380Z,9.26
2016-09-23T04:35:11.342Z,9.26
2016-09-23T04:36:11.003Z,9.32
2016-09-23T04:37:11.264Z,9.33
2016-09-23T04:38:11.233Z,9.33
2016-09-23T04:39:11.193Z,9.31
2016-09-23T04:40:11.159Z,9.26
2016-09-23T04:41:11.116Z,9.36
2016-09-23T04:42:11.080Z,9.35
2016-09-23T04:43:10.746Z,9.32
2016-09-23T04:44:10.706Z,9.5
2016-09-23T04:45:10.671Z,9.4
2016-09-23T04:46:10.632Z,9.4
2016-09-23T04:47:10.903Z,9.46
2016-09-23T04:48:10.865Z,9.38
2016-09-23T04:49:10.821Z,9.42
2016-09-23T04:50:10.786Z,9.4
2016-09-23T04:51:10.753Z,9.4
2016-09-23T04:52:10.716Z,9.46
2016-09-23T04:53:10.687Z,9.38
2016-09-23T04:54:10.640Z,9.38
2016-09-23T04:55:10.301Z,9.51
2016-09-23T04:56:10.567Z,9.51
2016-09-23T04:57:10.531Z,9.5
2016-09-23T04:58:10.193Z,9.5
2016-09-23T04:59:10.455Z,9.46
2016-09-23T05:00:10.425Z,9.53
2016-09-23T05:01:10.087Z,9.54
2016-09-23T05:02:10.355Z,9.51
2016-09-23T05:03:10.225Z,9.57
2016-09-23T05:04:10.274Z,9.65
2016-09-23T05:05:09.951Z,9.65
2016-09-23T05:06:09.895Z,9.69
2016-09-23T05:07:10.164Z,9.71
2016-09-23T05:08:09.823Z,9.65
2016-09-23T05:09:09.784Z,9.76
2016-09-23T05:10:10.060Z,9.76
2016-09-23T05:11:10.016Z,9.81
2016-09-23T05:12:09.983Z,9.81
2016-09-23T05:13:09.950Z,9.87
2016-09-23T05:14:09.905Z,9.89
2016-09-23T05:15:09.868Z,9.9
2016-09-23T05:16:09.834Z,9.86
2016-09-23T05:17:09.496Z,9.97
2016-09-23T05:18:09.762Z,10.08
2016-09-23T05:19:09.421Z,10.08
2016-09-23T05:20:09.388Z,10.11
2016-09-23T05:21:09.042Z,10.14
2016-09-23T05:22:09.615Z,10.14
2016-09-23T05:23:08.974Z,10.26
2016-09-23T05:24:09.245Z,10.18
2016-09-23T05:25:09.505Z,10.34
2016-09-23T05:26:09.469Z,10.29
2016-09-23T05:27:09.133Z,10.32
2016-09-23T05:28:09.402Z,10.32
2016-09-23T05:29:09.359Z,10.4
2016-09-23T05:30:09.324Z,10.48
2016-09-23T05:31:08.683Z,10.48
2016-09-23T05:32:09.246Z,10.55
2016-09-23T05:33:09.213Z,10.59
2016-09-23T05:34:08.877Z,10.55
2016-09-23T05:35:09.142Z,10.7
2016-09-23T05:36:09.107Z,10.73
2016-09-23T05:37:08.765Z,10.7
2016-09-23T05:38:08.729Z,10.79
2016-09-23T05:39:08.994Z,10.76
2016-09-23T05:40:08.660Z,10.81
2016-09-23T05:41:08.622Z,10.84
2016-09-23T05:42:08.887Z,10.88
2016-09-23T05:43:08.550Z,10.82
2016-09-23T05:44:08.514Z,10.89
2016-09-23T05:45:08.783Z,10.94
2016-09-23T05:46:08.446Z,10.91
2016-09-23T05:47:08.705Z,10.92
2016-09-23T05:48:08.675Z,11.04
2016-09-23T05:49:08.636Z,11.07
2016-09-23T05:50:08.600Z,11.07
2016-09-23T05:51:08.575Z,11.11
2016-09-23T05:52:08.229Z,11.22
2016-09-23T05:53:08.494Z,11.19
2016-09-23T05:54:08.458Z,11.28
2016-09-23T05:55:08.419Z,11.29
2016-09-23T05:56:08.396Z,11.32
2016-09-23T05:57:08.045Z,11.42
2016-09-23T05:58:08.316Z,11.46
2016-09-23T05:59:08.277Z,11.49
2016-09-23T06:00:08.242Z,11.44
2016-09-23T06:01:07.905Z,11.51
2016-09-23T06:02:07.566Z,11.57
2016-09-23T06:03:08.137Z,11.57
2016-09-23T06:04:07.794Z,11.65
2016-09-23T06:05:07.759Z,11.62
2016-09-23T06:06:08.028Z,11.67
2016-09-23T06:07:07.701Z,11.72
2016-09-23T06:08:07.658Z,11.73
2016-09-23T06:09:07.622Z,11.78
2016-09-23T06:10:07.896Z,11.83
2016-09-23T06:11:07.850Z,11.79
2016-09-23T06:12:07.825Z,11.83
2016-09-23T06:13:07.480Z,11.86
2016-09-23T06:14:07.747Z,11.83
2016-09-23T06:15:07.105Z,11.83
2016-09-23T06:16:07.669Z,11.88
2016-09-23T06:17:07.339Z,12.09
2016-09-23T06:18:07.302Z,12.07
2016-09-23T06:19:07.571Z,12.02
2016-09-23T06:20:07.536Z,12.17
2016-09-23T06:21:07.505Z,12.19
2016-09-23T06:22:07.464Z,12.32
2016-09-23T06:23:07.430Z,12.27
2016-09-23T06:24:07.093Z,12.34
2016-09-23T06:25:07.357Z,12.37
2016-09-23T06:26:07.320Z,12.5
2016-09-23T06:27:07.294Z,12.45
2016-09-23T06:28:07.258Z,12.41
2016-09-23T06:29:07.238Z,12.54
2016-09-23T06:30:07.184Z,12.57
2016-09-23T06:31:06.847Z,12.65
2016-09-23T06:32:07.120Z,12.65
2016-09-23T06:33:07.077Z,12.78
2016-09-23T06:34:07.042Z,12.78
2016-09-23T06:35:06.705Z,12.77
2016-09-23T06:36:06.677Z,12.83
2016-09-23T06:37:06.639Z,12.86
2016-09-23T06:38:06.902Z,12.89
2016-09-23T06:39:06.267Z,12.87
2016-09-23T06:40:06.533Z,12.97
2016-09-23T06:41:06.800Z,12.93
2016-09-23T06:42:06.462Z,12.96
2016-09-23T06:43:06.431Z,12.96
2016-09-23T06:44:06.399Z,13.05
2016-09-23T06:45:06.663Z,13.05
2016-09-23T06:46:06.634Z,13.08
2016-09-23T06:47:06.592Z,13.19
2016-09-23T06:48:06.561Z,13.2
2016-09-23T06:49:06.223Z,13.44
2016-09-23T06:50:06.491Z,13.44
2016-09-23T06:51:05.853Z,13.52
2016-09-23T06:52:06.117Z,13.67
2016-09-23T06:53:06.390Z,13.71
2016-09-23T06:54:06.048Z,13.88
2016-09-23T06:55:06.020Z,14.02
2016-09-23T06:56:05.985Z,14.18
2016-09-23T06:57:05.646Z,14.33
2016-09-23T06:58:06.217Z,14.42
2016-09-23T06:59:06.180Z,14.52
2016-09-23T07:00:06.153Z,14.57
2016-09-23T07:01:06.116Z,14.8
2016-09-23T07:02:06.091Z,14.94
2016-09-23T07:03:05.753Z,15.03
2016-09-23T07:04:05.713Z,15.11
2016-09-23T07:05:05.984Z,15.14
2016-09-23T07:06:05.954Z,15.16
2016-09-23T07:07:05.922Z,15.19
2016-09-23T07:08:05.884Z,15.35
2016-09-23T07:09:05.248Z,15.44
2016-09-23T07:10:05.819Z,15.53
2016-09-23T07:11:05.784Z,15.56
2016-09-23T07:12:05.750Z,15.59
2016-09-23T07:13:05.719Z,15.53
2016-09-23T07:14:05.383Z,15.5
2016-09-23T07:15:05.653Z,15.39
2016-09-23T07:16:05.321Z,15.35
2016-09-23T07:17:05.286Z,15.38
2016-09-23T07:18:05.557Z,15.17
2016-09-23T07:19:05.222Z,15.2
2016-09-23T07:20:05.491Z,15.16
2016-09-23T07:21:05.458Z,15.03
2016-09-23T07:22:05.126Z,14.95
2016-09-23T07:23:05.393Z,14.99
2016-09-23T07:24:05.361Z,14.91
2016-09-23T07:25:05.326Z,14.89
2016-09-23T07:26:05.298Z,14.95
2016-09-23T07:27:04.655Z,14.83
2016-09-23T07:28:05.239Z,14.86
2016-09-23T07:29:05.199Z,14.78
2016-09-23T07:30:04.863Z,14.84
2016-09-23T07:31:04.822Z,14.81
2016-09-23T07:32:05.096Z,14.88
2016-09-23T07:33:05.065Z,14.86
2016-09-23T07:34:05.031Z,14.88
2016-09-23T07:35:04.994Z,14.94
2016-09-23T07:36:04.963Z,14.89
2016-09-23T07:37:04.933Z,14.83
2016-09-23T07:38:04.598Z,14.94
2016-09-23T07:39:04.263Z,14.89
2016-09-23T07:40:04.834Z,14.92
2016-09-23T07:41:04.799Z,15.01
2016-09-23T07:42:04.768Z,14.99
2016-09-23T07:43:04.430Z,15.11
2016-09-23T07:44:04.706Z,15.19
2016-09-23T07:45:04.672Z,15.21
2016-09-23T07:46:04.636Z,15.44
2016-09-23T07:47:04.605Z,15.53
2016-09-23T07:48:03.962Z,15.67
2016-09-23T07:49:04.539Z,15.75
2016-09-23T07:50:04.507Z,15.82
2016-09-23T07:51:04.470Z,15.87
2016-09-23T07:52:04.442Z,15.89
2016-09-23T07:53:04.405Z,15.8
2016-09-23T07:54:04.380Z,15.76
2016-09-23T07:55:03.738Z,15.64
2016-09-23T07:56:04.008Z,15.78
2016-09-23T07:57:04.279Z,15.72
2016-09-23T07:58:04.242Z,15.71
2016-09-23T07:59:04.217Z,15.74
2016-09-23T08:00:04.180Z,15.74
2016-09-23T08:01:03.851Z,15.69
2016-09-23T08:02:03.512Z,15.8
2016-09-23T08:03:04.084Z,15.78
2016-09-23T08:04:04.060Z,15.78
2016-09-23T08:05:03.709Z,15.74
2016-09-23T08:06:03.995Z,15.76
2016-09-23T08:07:03.951Z,15.74
2016-09-23T08:08:03.924Z,15.72
2016-09-23T08:09:03.589Z,15.76
2016-09-23T08:10:03.855Z,15.71
2016-09-23T08:11:03.823Z,15.72
2016-09-23T08:12:03.788Z,15.74
2016-09-23T08:13:03.456Z,15.83
2016-09-23T08:14:03.425Z,15.94
2016-09-23T08:15:03.090Z,16.04
2016-09-23T08:16:03.663Z,16.23
2016-09-23T08:17:03.324Z,16.34
2016-09-23T08:18:03.292Z,16.7
2016-09-23T08:19:03.267Z,17.14
2016-09-23T08:20:02.928Z,17.44
2016-09-23T08:21:03.198Z,17.79
2016-09-23T08:22:03.172Z,17.97
2016-09-23T08:23:03.137Z,18.2
2016-09-23T08:24:03.406Z,18.41
2016-09-23T08:25:03.078Z,18.62
2016-09-23T08:26:03.352Z,18.92
2016-09-23T08:27:03.315Z,19.23
2016-09-23T08:28:03.283Z,19.39
2016-09-23T08:29:03.248Z,19.54
2016-09-23T08:30:02.920Z,19.59
2016-09-23T08:31:03.192Z,19.54
2016-09-23T08:32:03.137Z,19.43
2016-09-23T08:33:03.137Z,19.41
2016-09-23T08:34:03.103Z,19.32
2016-09-23T08:35:03.069Z,19.26
2016-09-23T08:36:02.741Z,19.25
2016-09-23T08:37:02.710Z,19.28
2016-09-23T08:38:02.998Z,19.28
2016-09-23T08:39:02.957Z,19.33
2016-09-23T08:40:02.326Z,19.4
2016-09-23T08:41:02.591Z,19.48
2016-09-23T08:42:02.561Z,19.88
2016-09-23T08:43:02.836Z,19.96
2016-09-23T08:44:02.812Z,19.91
2016-09-23T08:45:02.478Z,19.8
2016-09-23T08:46:02.446Z,19.71
2016-09-23T08:47:02.412Z,19.51
2016-09-23T08:48:02.383Z,19.44
2016-09-23T08:49:02.654Z,19.31
2016-09-23T08:50:02.625Z,19.19
2016-09-23T08:51:02.593Z,19.25
2016-09-23T08:52:02.570Z,19.14
2016-09-23T08:53:02.235Z,19.14
2016-09-23T08:54:02.510Z,19.43
2016-09-23T08:55:02.484Z,19.8
2016-09-23T08:56:02.145Z,20.03
2016-09-23T08:57:02.421Z,20.43
2016-09-23T08:58:02.389Z,20.87
2016-09-23T08:59:02.449Z,21.17
2016-09-23T09:00:02.031Z,21.49
2016-09-23T09:01:02.303Z,21.54
2016-09-23T09:02:02.271Z,21.46
2016-09-23T09:03:01.941Z,21.28
2016-09-23T09:04:01.948Z,21.13
2016-09-23T09:05:02.186Z,20.87
2016-09-23T09:06:02.158Z,20.69
2016-09-23T09:07:02.127Z,20.38
2016-09-23T09:08:02.100Z,20.26
2016-09-23T09:09:01.769Z,20.17
2016-09-23T09:10:02.049Z,20.03
2016-09-23T09:11:01.405Z,19.91
2016-09-23T09:12:01.979Z,19.84
2016-09-23T09:13:01.956Z,19.78
2016-09-23T09:14:01.926Z,19.73
2016-09-23T09:15:01.904Z,19.61
2016-09-23T09:16:01.867Z,19.51
2016-09-23T09:17:01.537Z,19.56
2016-09-23T09:18:01.206Z,19.63
2016-09-23T09:19:01.774Z,19.65
2016-09-23T09:20:01.750Z,19.66
2016-09-23T09:21:01.720Z,19.74
2016-09-23T09:22:01.695Z,19.84
2016-09-23T09:23:01.664Z,19.84
2016-09-23T09:24:01.329Z,19.87
2016-09-23T09:25:01.307Z,19.95
2016-09-23T09:26:01.577Z,19.99
2016-09-23T09:27:00.941Z,19.98
2016-09-23T09:28:01.219Z,20.18
2016-09-23T09:29:01.191Z,20.18
2016-09-23T09:30:01.458Z,20.23
2016-09-23T09:31:00.827Z,20.31
2016-09-23T09:32:00.795Z,20.38
2016-09-23T09:33:01.373Z,20.35
2016-09-23T09:34:01.341Z,20.21
2016-09-23T09:35:00.711Z,20.16
2016-09-23T09:36:00.679Z,20.03
2016-09-23T09:37:01.255Z,20.05
2016-09-23T09:38:00.923Z,20.06
2016-09-23T09:39:00.905Z,20.03
2016-09-23T09:40:00.868Z,20.01
2016-09-23T09:41:00.835Z,20.14
2016-09-23T09:42:00.804Z,20.32
2016-09-23T09:43:01.085Z,20.7
2016-09-23T09:44:00.758Z,21.01
2016-09-23T09:45:01.018Z,21.34
2016-09-23T09:46:00.991Z,21.72
2016-09-23T09:47:00.663Z,21.99
2016-09-23T09:48:00.937Z,22.14
2016-09-23T09:49:00.309Z,22.18
2016-09-23T09:50:00.886Z,22.15
2016-09-23T09:51:00.847Z,22.21
2016-09-23T09:52:00.828Z,22.22
2016-09-23T09:53:00.798Z,22.42
2016-09-23T09:54:00.464Z,22.55
2016-09-23T09:55:00.435Z,22.47
2016-09-23T09:56:00.707Z,22.54
2016-09-23T09:57:00.684Z,22.51
2016-09-23T09:58:00.657Z,22.54
2016-09-23T09:59:00.625Z,22.73
2016-09-23T10:00:00.303Z,22.94
2016-09-23T10:01:00.572Z,23.09
2016-09-23T10:02:00.540Z,23.4
2016-09-23T10:03:00.512Z,23.76
2016-09-23T10:04:00.187Z,24.27
2016-09-23T10:05:00.162Z,25.08
2016-09-23T10:06:00.131Z,25.7
2016-09-23T10:06:59.805Z,26.09
2016-09-23T10:08:00.379Z,26.63
2016-09-23T10:09:00.352Z,27
2016-09-23T10:10:00.027Z,27.54
2016-09-23T10:11:00.303Z,27.88
2016-09-23T10:11:59.980Z,28.18
2016-09-23T10:12:59.959Z,28.37
2016-09-23T10:14:00.228Z,28.51
2016-09-23T10:15:00.210Z,28.73
2016-09-23T10:16:00.201Z,28.93
2016-09-23T10:16:59.860Z,29.08
2016-09-23T10:18:00.131Z,29.39
2016-09-23T10:19:00.109Z,29.63
2016-09-23T10:19:59.788Z,29.97
2016-09-23T10:21:00.059Z,30.15
2016-09-23T10:22:00.034Z,30.23
2016-09-23T10:22:59.704Z,30.01
2016-09-23T10:23:59.988Z,29.63
2016-09-23T10:24:59.962Z,29.42
2016-09-23T10:25:59.634Z,29.52
2016-09-23T10:26:59.609Z,29.8
2016-09-23T10:27:59.590Z,30.07
2016-09-23T10:28:59.564Z,30.29
2016-09-23T10:29:59.544Z,30.32
2016-09-23T10:30:59.519Z,30.37
2016-09-23T10:31:59.798Z,30.38
2016-09-23T10:32:59.471Z,30.42
2016-09-23T10:33:59.753Z,30.51
2016-09-23T10:34:59.728Z,30.79
2016-09-23T10:35:59.703Z,31.09
2016-09-23T10:36:59.689Z,31.29
2016-09-23T10:37:59.356Z,31.5
2016-09-23T10:38:59.340Z,31.86
2016-09-23T10:39:59.309Z,32
2016-09-23T10:40:59.300Z,32.06
2016-09-23T10:41:59.270Z,32.29
2016-09-23T10:42:59.550Z,32.33
2016-09-23T10:43:59.226Z,32.4
2016-09-23T10:44:59.204Z,32.44
2016-09-23T10:45:59.488Z,32.35
2016-09-23T10:46:59.460Z,32.28
2016-09-23T10:47:59.138Z,32.29
2016-09-23T10:48:59.116Z,32.23
2016-09-23T10:49:59.396Z,32.14
2016-09-23T10:50:59.375Z,32.26
2016-09-23T10:51:59.354Z,32.08
2016-09-23T10:52:59.033Z,32.08
2016-09-23T10:53:59.008Z,31.78
2016-09-23T10:54:59.286Z,31.81
2016-09-23T10:55:58.965Z,31.81
2016-09-23T10:56:59.240Z,31.96
2016-09-23T10:57:58.923Z,32.04
2016-09-23T10:58:59.201Z,32.01
2016-09-23T10:59:58.880Z,31.89
2016-09-23T11:00:59.165Z,31.53
2016-09-23T11:01:58.843Z,31.57
2016-09-23T11:02:59.113Z,31.47
2016-09-23T11:03:59.100Z,31.36
2016-09-23T11:04:59.067Z,31.21
2016-09-23T11:05:59.053Z,31.34
2016-09-23T11:06:59.039Z,31.34
2016-09-23T11:07:59.003Z,31.31
2016-09-23T11:08:58.676Z,31.39
2016-09-23T11:09:58.958Z,31.39
2016-09-23T11:10:58.936Z,31.23
2016-09-23T11:11:58.916Z,31.02
2016-09-23T11:12:58.286Z,31.02
2016-09-23T11:13:58.883Z,30.79
2016-09-23T11:14:58.849Z,30.67
2016-09-23T11:15:58.826Z,30.58
2016-09-23T11:16:58.802Z,30.37
2016-09-23T11:17:58.781Z,30.35
2016-09-23T11:18:58.155Z,30.02
2016-09-23T11:19:58.738Z,29.34
2016-09-23T11:20:58.410Z,28.7
2016-09-23T11:21:58.689Z,28.36
2016-09-23T11:22:58.372Z,28.21
2016-09-23T11:23:58.338Z,28.06
2016-09-23T11:24:58.325Z,28.06
2016-09-23T11:25:58.299Z,27.99
2016-09-23T11:26:58.272Z,27.88
2016-09-23T11:27:58.549Z,27.85
2016-09-23T11:28:58.220Z,27.7
2016-09-23T11:29:58.198Z,27.59
2016-09-23T11:30:58.489Z,27.51
2016-09-23T11:31:58.155Z,27.55
2016-09-23T11:32:58.127Z,27.34
2016-09-23T11:33:58.421Z,27.29
2016-09-23T11:34:58.382Z,27.07
2016-09-23T11:35:58.360Z,27.09
2016-09-23T11:36:58.333Z,26.72
2016-09-23T11:37:58.006Z,26.58
2016-09-23T11:38:58.284Z,26.25
2016-09-23T11:39:58.257Z,26.28
2016-09-23T11:40:57.941Z,26.05
2016-09-23T11:41:58.207Z,25.91
2016-09-23T11:42:58.187Z,25.76
2016-09-23T11:43:58.157Z,25.57
2016-09-23T11:44:58.141Z,25.39
2016-09-23T11:45:57.812Z,25.06
2016-09-23T11:46:57.778Z,24.73
2016-09-23T11:47:57.754Z,24.58
2016-09-23T11:48:58.031Z,24.31
2016-09-23T11:49:57.704Z,24.08
2016-09-23T11:50:57.981Z,23.85
2016-09-23T11:51:57.351Z,23.79
2016-09-23T11:52:57.633Z,23.46
2016-09-23T11:53:57.902Z,23.16
2016-09-23T11:54:57.569Z,23
2016-09-23T11:55:57.252Z,23.05
2016-09-23T11:56:57.518Z,23.1
2016-09-23T11:57:57.497Z,23.35
2016-09-23T11:58:57.474Z,23.51
2016-09-23T11:59:57.139Z,23.68
2016-09-23T12:00:57.108Z,23.69
2016-09-23T12:01:57.389Z,23.72
2016-09-23T12:02:57.662Z,23.7
2016-09-23T12:03:57.641Z,23.73
2016-09-23T12:04:57.610Z,23.85
2016-09-23T12:05:57.277Z,23.83
2016-09-23T12:06:57.553Z,23.91
2016-09-23T12:07:57.221Z,23.8
2016-09-23T12:08:57.504Z,23.78
2016-09-23T12:09:57.467Z,23.83
2016-09-23T12:10:57.460Z,23.85
2016-09-23T12:11:57.448Z,23.91
2016-09-23T12:12:57.389Z,23.8
2016-09-23T12:13:57.363Z,23.76
2016-09-23T12:14:56.730Z,23.54
2016-09-23T12:15:57.307Z,23.39
2016-09-23T12:16:56.983Z,23.38
2016-09-23T12:17:57.255Z,23.48
2016-09-23T12:18:57.237Z,23.39
2016-09-23T12:19:56.900Z,23.4
2016-09-23T12:20:56.567Z,23.46
2016-09-23T12:21:57.144Z,23.53
2016-09-23T12:22:57.121Z,23.42
2016-09-23T12:23:57.091Z,23.39
2016-09-23T12:24:57.069Z,23.38
2016-09-23T12:25:57.055Z,23.43
2016-09-23T12:26:57.007Z,23.48
2016-09-23T12:27:56.983Z,23.58
2016-09-23T12:28:56.653Z,23.5
2016-09-23T12:29:56.926Z,23.47
2016-09-23T12:30:56.594Z,23.43
2016-09-23T12:31:56.875Z,23.43
2016-09-23T12:32:56.841Z,23.4
2016-09-23T12:33:56.215Z,23.36
2016-09-23T12:34:56.789Z,23.19
2016-09-23T12:35:56.760Z,23.32
2016-09-23T12:36:56.737Z,23.35
2016-09-23T12:37:56.703Z,23.28
2016-09-23T12:38:56.377Z,23.43
2016-09-23T12:39:56.647Z,23.47
2016-09-23T12:40:56.621Z,23.55
2016-09-23T12:41:56.590Z,23.68
2016-09-23T12:42:56.283Z,23.69
2016-09-23T12:43:56.539Z,23.7
2016-09-23T12:44:56.210Z,23.7
2016-09-23T12:45:56.495Z,23.72
2016-09-23T12:46:56.176Z,23.78
2016-09-23T12:47:56.432Z,23.84
2016-09-23T12:48:56.400Z,23.8
2016-09-23T12:49:56.376Z,23.8
2016-09-23T12:50:56.346Z,23.9
2016-09-23T12:51:56.319Z,23.9
2016-09-23T12:52:56.297Z,23.85
2016-09-23T12:53:56.262Z,23.87
2016-09-23T12:54:56.240Z,23.91
2016-09-23T12:55:55.908Z,23.88
2016-09-23T12:56:56.183Z,23.9
2016-09-23T12:57:56.159Z,23.8
2016-09-23T12:58:56.129Z,23.79
2016-09-23T12:59:56.100Z,23.84
2016-09-23T13:00:55.767Z,23.79
2016-09-23T13:01:55.761Z,23.87
2016-09-23T13:02:55.716Z,23.83
2016-09-23T13:03:55.690Z,23.83
2016-09-23T13:04:55.660Z,23.8